Atlantic - Newfoundland: Past 24 Hour Conditions

 

Ferolle Point

08:30 PM NDT 25 October 2014
This table is a summary of hourly weather conditions for the past 24 hours.
Date / Time
(NDT)
Wind(knots) Conditions Visibility(km) Pressure(kPa) Air tempC) Relative humidity(%) Dew pointC)
25 October 2014
20:30 ENE 25 gust 30 N/A N/A 100.6 3 81 0
19:30 ENE 22 gust 28 N/A N/A 100.6 3 82 0
18:30 ENE 21 gust 32 N/A N/A 100.6 3 80 0
17:30 NE 24 N/A N/A 100.6 4 75 0
16:30 ENE 25 gust 33 N/A N/A 100.5 4 77 0
15:30 ENE 23 gust 32 N/A N/A 100.5 4 72 0
14:30 ENE 24 gust 33 N/A N/A 100.5 5 72 0
13:30 ENE 27 gust 33 N/A N/A 100.5 4 70 -1
12:30 ENE 26 gust 31 N/A N/A 100.6 4 78 1
11:30 ENE 26 gust 34 N/A N/A 100.6 4 77 0
10:30 ENE 28 gust 35 N/A N/A 100.7 4 79 0
9:30 ENE 29 gust 34 N/A N/A 100.7 4 82 1
8:30 ENE 27 gust 35 N/A N/A 100.7 3 81 0
7:30 ENE 26 gust 34 N/A N/A 100.7 3 80 0
6:30 ENE 31 gust 36 N/A N/A 100.7 3 81 0
5:30 ENE 23 gust 35 N/A N/A 100.7 3 80 0
4:30 ENE 26 gust 34 N/A N/A 100.7 3 80 0
3:30 ENE 26 gust 33 N/A N/A 100.7 3 82 1
2:30 ENE 28 N/A N/A 100.8 3 82 1
1:30 ENE 27 gust 37 N/A N/A 100.8 4 81 0
0:30 ENE 28 gust 33 N/A N/A 100.8 3 85 1
24 October 2014
23:30 ENE 25 gust 30 N/A N/A 100.9 3 92 2
22:30 ENE 20 gust 30 N/A N/A 101.1 3 91 2
21:30 ENE 26 gust 32 N/A N/A 101.1 3 91 2
20:30 ENE 23 gust 31 N/A N/A 101.1 3 90 2
 
Map of Atlantic - Newfoundland marine weather areas Southwestern Grand Banks - 44138 Banquereau - 44139 Tail of the Bank - 44140 Nickerson Bank - 44251 Northeast Burgeo Bank - 44255 Blanc-Sablon Airport Cap Whittle Chevery Natashquan Airport Heath Point Miscou Island Grand Étang Ingonish Beach North Mountain St.Paul Island J.A. Douglas McCurdy Sydney Airport Charlottetown Airport East Point North Cape Argentia Bonavista Burgeo Cape Race Corner Brook Daniel's Harbour Englee Ferolle Point La Scie Port aux Basques Rocky Harbour Sagona Island St. Anthony Airport St. John's Int'l Airport St. Lawrence Stephenville Airport Twillingate Winterland Wreckhouse Cartwright Airport Mary's Harbour Grates Cove Pool's Island Marticot Island Long Pond Îles de la Madeleine Airport
Legend: buoyBuoy land stationLand Station